createdAt,value
2018-06-20T00:00:08.709Z,18.70
2018-06-20T00:02:36.896Z,27.90
2018-06-20T00:05:05.099Z,22.40
2018-06-20T00:07:33.299Z,20.83
2018-06-20T00:10:01.486Z,25.17
2018-06-20T00:12:29.667Z,26.10
2018-06-20T00:14:57.607Z,26.17
2018-06-20T00:17:25.833Z,24.70
2018-06-20T00:19:54.037Z,33.77
2018-06-20T00:22:22.272Z,23.47
2018-06-20T00:24:50.435Z,24.37
2018-06-20T00:27:18.645Z,25.87
2018-06-20T00:29:46.856Z,24.40
2018-06-20T00:32:15.053Z,27.50
2018-06-20T00:34:43.644Z,25.23
2018-06-20T00:37:11.867Z,27.63
2018-06-20T00:39:40.077Z,23.57
2018-06-20T00:42:08.260Z,23.47
2018-06-20T00:44:36.236Z,24.77
2018-06-20T00:47:04.172Z,18.67
2018-06-20T00:49:32.357Z,23.13
2018-06-20T00:52:00.543Z,24.73
2018-06-20T00:54:28.539Z,28.53
2018-06-20T00:56:56.709Z,27.63
2018-06-20T00:59:24.924Z,27.53
2018-06-20T01:01:53.118Z,25.37
2018-06-20T01:04:21.325Z,24.07
2018-06-20T01:06:49.506Z,33.70
2018-06-20T01:09:17.725Z,28.57
2018-06-20T01:11:45.998Z,28.10
2018-06-20T01:14:14.094Z,33.27
2018-06-20T01:16:42.487Z,26.10
2018-06-20T01:19:10.683Z,35.13
2018-06-20T01:21:38.895Z,37.70
2018-06-20T01:24:07.117Z,27.67
2018-06-20T01:26:35.341Z,31.00
2018-06-20T01:29:03.550Z,26.83
2018-06-20T01:31:38.170Z,27.37
2018-06-20T01:34:06.357Z,22.80
2018-06-20T01:36:34.289Z,29.57
2018-06-20T01:39:02.501Z,29.13
2018-06-20T01:41:30.706Z,24.00
2018-06-20T01:43:58.900Z,20.93
2018-06-20T01:46:27.103Z,26.13
2018-06-20T01:48:55.281Z,25.90
2018-06-20T01:51:23.438Z,30.33
2018-06-20T01:53:51.627Z,26.27
2018-06-20T01:56:19.792Z,24.80
2018-06-20T01:58:47.963Z,28.93
2018-06-20T02:01:16.179Z,25.23
2018-06-20T02:03:44.417Z,31.13
2018-06-20T02:06:12.625Z,20.53
2018-06-20T02:08:40.797Z,28.37
2018-06-20T02:11:08.992Z,26.00
2018-06-20T02:13:37.215Z,27.20
2018-06-20T02:16:05.414Z,26.30
2018-06-20T02:18:33.650Z,20.97
2018-06-20T02:21:01.896Z,21.53
2018-06-20T02:23:30.081Z,22.07
2018-06-20T02:25:58.249Z,25.10
2018-06-20T02:28:26.448Z,30.30
2018-06-20T02:30:54.629Z,19.40
2018-06-20T02:33:22.821Z,25.70
2018-06-20T02:35:51.025Z,26.17
2018-06-20T02:38:19.238Z,23.97
2018-06-20T02:40:47.451Z,23.10
2018-06-20T02:43:15.424Z,22.40
2018-06-20T02:45:43.606Z,28.17
2018-06-20T02:48:11.814Z,24.10
2018-06-20T02:50:39.987Z,20.43
2018-06-20T02:53:08.183Z,15.20
2018-06-20T02:55:36.362Z,18.60
2018-06-20T02:58:04.600Z,15.83
2018-06-20T03:00:32.794Z,21.70
2018-06-20T03:03:01.044Z,24.10
2018-06-20T03:05:29.233Z,20.13
2018-06-20T03:07:57.423Z,25.30
2018-06-20T03:10:25.632Z,16.43
2018-06-20T03:12:54.836Z,17.47
2018-06-20T03:15:23.020Z,17.43
2018-06-20T03:17:51.230Z,13.70
2018-06-20T03:20:19.436Z,15.10
2018-06-20T03:22:47.625Z,16.33
2018-06-20T03:25:15.811Z,16.90
2018-06-20T03:27:43.998Z,18.63
2018-06-20T03:30:12.244Z,16.07
2018-06-20T03:32:40.186Z,17.97
2018-06-20T03:35:08.390Z,16.00
2018-06-20T03:37:36.698Z,15.70
2018-06-20T03:40:05.132Z,12.80
2018-06-20T03:42:33.319Z,14.03
2018-06-20T03:45:01.275Z,16.83
2018-06-20T03:47:29.469Z,14.00
2018-06-20T03:49:57.678Z,14.10
2018-06-20T03:52:25.872Z,17.43
2018-06-20T03:54:54.048Z,16.70
2018-06-20T03:57:22.232Z,18.00
2018-06-20T03:59:50.420Z,17.70
2018-06-20T04:02:18.646Z,15.97
2018-06-20T04:04:46.764Z,16.70
2018-06-20T04:07:14.983Z,14.63
2018-06-20T04:09:43.167Z,14.03
2018-06-20T04:12:11.340Z,19.57
2018-06-20T04:14:39.531Z,15.43
2018-06-20T04:17:07.719Z,13.90
2018-06-20T04:19:35.906Z,13.77
2018-06-20T04:22:04.067Z,14.87
2018-06-20T04:24:32.278Z,17.50
2018-06-20T04:27:00.480Z,17.47
2018-06-20T04:29:28.650Z,21.00
2018-06-20T04:31:56.913Z,23.60
2018-06-20T04:34:25.099Z,16.40
2018-06-20T04:36:53.280Z,17.57
2018-06-20T04:39:21.492Z,16.20
2018-06-20T04:41:49.681Z,21.47
2018-06-20T04:44:17.635Z,19.80
2018-06-20T04:46:45.816Z,22.70
2018-06-20T04:49:13.986Z,22.27
2018-06-20T04:51:42.168Z,19.40
2018-06-20T04:54:10.112Z,24.23
2018-06-20T04:56:38.287Z,21.20
2018-06-20T04:59:06.552Z,23.97
2018-06-20T05:01:34.740Z,23.63
2018-06-20T05:04:02.920Z,27.90
2018-06-20T05:06:31.103Z,31.43
2018-06-20T05:09:01.335Z,41.57
2018-06-20T05:11:29.560Z,34.50
2018-06-20T05:13:57.749Z,42.87
2018-06-20T05:16:25.924Z,36.60
2018-06-20T05:18:54.114Z,35.97
2018-06-20T05:21:22.351Z,29.30
2018-06-20T05:23:50.516Z,32.73
2018-06-20T05:26:18.712Z,28.67
2018-06-20T05:28:46.911Z,34.17
2018-06-20T05:31:15.108Z,29.57
2018-06-20T05:33:43.313Z,28.07
2018-06-20T05:36:11.488Z,29.50
2018-06-20T05:38:39.671Z,30.53
2018-06-20T05:41:07.873Z,32.30
2018-06-20T05:43:36.241Z,31.83
2018-06-20T05:46:04.343Z,33.80
2018-06-20T05:48:32.541Z,36.47
2018-06-20T05:51:00.731Z,40.50
2018-06-20T05:53:28.954Z,36.30
2018-06-20T05:55:57.137Z,41.23
2018-06-20T05:58:25.080Z,38.40
2018-06-20T06:00:53.376Z,37.30
2018-06-20T06:03:21.327Z,35.50
2018-06-20T06:06:01.321Z,27.93
2018-06-20T06:08:29.499Z,33.47
2018-06-20T06:10:57.683Z,39.17
2018-06-20T06:13:25.871Z,38.43
2018-06-20T06:15:54.099Z,39.30
2018-06-20T06:18:22.272Z,30.80
2018-06-20T06:20:50.499Z,31.27
2018-06-20T06:23:18.750Z,29.83
2018-06-20T06:25:46.880Z,34.93
2018-06-20T06:28:15.075Z,41.47
2018-06-20T06:30:43.366Z,46.27
2018-06-20T06:33:11.508Z,40.40
2018-06-20T06:35:39.696Z,43.50
2018-06-20T06:38:08.021Z,41.87
2018-06-20T06:40:36.184Z,46.63
2018-06-20T06:43:04.411Z,48.50
2018-06-20T06:45:32.474Z,47.30
2018-06-20T06:48:00.702Z,45.83
2018-06-20T06:50:28.891Z,42.63
2018-06-20T06:52:57.076Z,45.33
2018-06-20T06:55:25.256Z,52.30
2018-06-20T06:57:53.461Z,54.60
2018-06-20T07:00:21.632Z,57.10
2018-06-20T07:02:49.609Z,54.90
2018-06-20T07:05:17.848Z,49.80
2018-06-20T07:07:46.023Z,44.57
2018-06-20T07:10:14.230Z,54.23
2018-06-20T07:12:42.416Z,47.30
2018-06-20T07:15:10.597Z,45.23
2018-06-20T07:17:38.834Z,43.07
2018-06-20T07:20:07.009Z,31.70
2018-06-20T07:22:35.183Z,33.77
2018-06-20T07:25:03.505Z,29.57
2018-06-20T07:27:38.204Z,26.87
2018-06-20T07:30:06.434Z,31.17
2018-06-20T07:32:34.584Z,31.13
2018-06-20T07:35:02.761Z,32.00
2018-06-20T07:37:30.941Z,30.17
2018-06-20T07:39:59.123Z,36.83
2018-06-20T07:42:27.324Z,53.70
2018-06-20T07:44:55.552Z,54.70
2018-06-20T07:47:23.737Z,56.40
2018-06-20T07:49:51.920Z,55.70
2018-06-20T07:52:20.116Z,38.20
2018-06-20T07:54:48.308Z,36.40
2018-06-20T07:57:16.491Z,33.40
2018-06-20T07:59:50.092Z,32.53
2018-06-20T08:02:35.291Z,43.10
2018-06-20T08:05:08.945Z,40.20
2018-06-20T08:07:42.711Z,38.63
2018-06-20T08:11:14.809Z,47.57
2018-06-20T08:13:48.477Z,58.53
2018-06-20T08:16:22.043Z,52.87
2018-06-20T08:18:55.728Z,55.27
2018-06-20T08:21:23.862Z,37.87
2018-06-20T08:23:52.092Z,42.63
2018-06-20T08:26:20.290Z,38.97
2018-06-20T08:28:48.495Z,28.33
2018-06-20T08:31:16.696Z,21.20
2018-06-20T08:33:44.664Z,19.57
2018-06-20T08:36:12.836Z,19.20
2018-06-20T08:38:41.041Z,18.17
2018-06-20T08:41:09.309Z,17.23
2018-06-20T08:43:37.504Z,18.50
2018-06-20T08:46:05.684Z,19.17
2018-06-20T08:48:33.879Z,17.87
2018-06-20T08:51:02.092Z,16.40
2018-06-20T08:53:30.040Z,17.63
2018-06-20T08:55:58.228Z,17.53
2018-06-20T08:58:26.177Z,16.30
2018-06-20T09:00:59.751Z,17.00
2018-06-20T09:03:27.988Z,17.40
2018-06-20T09:06:01.595Z,18.27
2018-06-20T09:08:35.221Z,17.70
2018-06-20T09:11:08.771Z,20.17
2018-06-20T09:14:11.976Z,18.20
2018-06-20T09:16:45.407Z,16.90
2018-06-20T09:19:18.983Z,22.60
2018-06-20T09:21:47.180Z,19.83
2018-06-20T09:24:15.361Z,19.53
2018-06-20T09:26:43.555Z,19.70
2018-06-20T09:29:11.727Z,23.50
2018-06-20T09:31:39.912Z,22.67
2018-06-20T09:34:08.107Z,30.63
2018-06-20T09:36:36.284Z,25.70
2018-06-20T09:39:07.046Z,26.53
2018-06-20T09:41:35.259Z,25.97
2018-06-20T09:44:03.445Z,23.37
2018-06-20T09:46:31.635Z,23.90
2018-06-20T09:48:59.934Z,25.53
2018-06-20T09:51:28.135Z,24.17
2018-06-20T09:53:56.332Z,19.80
2018-06-20T09:56:24.584Z,24.47
2018-06-20T09:58:52.799Z,25.93
2018-06-20T10:01:26.445Z,24.10
2018-06-20T10:04:00.057Z,22.90
2018-06-20T10:06:33.845Z,20.03
2018-06-20T10:10:06.984Z,29.43
2018-06-20T10:12:40.670Z,25.10
2018-06-20T10:15:09.734Z,23.40
2018-06-20T10:17:37.927Z,22.17
2018-06-20T10:20:10.351Z,21.17
2018-06-20T10:22:38.524Z,19.23
2018-06-20T10:25:07.257Z,17.83
2018-06-20T10:27:35.488Z,19.30
2018-06-20T10:30:03.708Z,22.80
2018-06-20T10:32:31.999Z,18.13
2018-06-20T10:35:00.180Z,19.73
2018-06-20T10:37:28.379Z,20.47
2018-06-20T10:39:56.629Z,26.13
2018-06-20T10:42:24.799Z,23.27
2018-06-20T10:44:52.977Z,19.43
2018-06-20T10:47:41.268Z,26.47
2018-06-20T10:50:09.457Z,25.17
2018-06-20T10:52:37.672Z,26.07
2018-06-20T10:55:06.089Z,23.00
2018-06-20T10:57:39.796Z,23.57
2018-06-20T11:00:13.504Z,22.27
2018-06-20T11:02:47.075Z,22.53
2018-06-20T11:05:20.765Z,20.13
2018-06-20T11:08:57.174Z,22.63
2018-06-20T11:11:30.954Z,26.63
2018-06-20T11:13:59.234Z,19.27
2018-06-20T11:16:27.373Z,18.23
2018-06-20T11:18:56.332Z,22.03
2018-06-20T11:21:24.569Z,18.63
2018-06-20T11:23:52.767Z,22.00
2018-06-20T11:26:21.002Z,23.53
2018-06-20T11:28:49.192Z,22.37
2018-06-20T11:31:17.392Z,23.23
2018-06-20T11:33:45.356Z,31.50
2018-06-20T11:36:13.297Z,30.37
2018-06-20T11:38:41.479Z,30.07
2018-06-20T11:41:09.687Z,31.40
2018-06-20T11:43:37.884Z,28.30
2018-06-20T11:46:11.433Z,35.47
2018-06-20T11:48:39.611Z,45.50
2018-06-20T11:51:08.440Z,44.53
2018-06-20T11:53:36.639Z,34.83
2018-06-20T11:56:04.819Z,37.33
2018-06-20T11:58:38.289Z,34.90
2018-06-20T12:01:11.993Z,40.30
2018-06-20T12:03:45.520Z,37.93
2018-06-20T12:06:19.058Z,43.97
2018-06-20T12:08:52.695Z,39.63
2018-06-20T12:11:26.368Z,42.00
2018-06-20T12:14:00.094Z,42.37
2018-06-20T12:16:28.327Z,40.10
2018-06-20T12:19:01.721Z,37.77
2018-06-20T12:21:35.381Z,37.17
2018-06-20T12:24:09.324Z,34.10
2018-06-20T12:26:42.928Z,37.40
2018-06-20T12:29:16.602Z,47.07
2018-06-20T12:31:50.216Z,39.20
2018-06-20T12:34:23.884Z,38.90
2018-06-20T12:36:57.545Z,37.13
2018-06-20T12:39:24.861Z,38.80
2018-06-20T12:41:58.509Z,39.17
2018-06-20T12:44:32.081Z,42.33
2018-06-20T12:47:06.674Z,43.37
2018-06-20T12:49:37.284Z,40.60
2018-06-20T12:52:05.756Z,44.30
2018-06-20T12:54:34.120Z,42.40
2018-06-20T12:57:02.073Z,29.93
2018-06-20T12:59:30.261Z,37.93
2018-06-20T13:01:58.210Z,33.60
2018-06-20T13:04:26.395Z,32.20
2018-06-20T13:06:54.676Z,26.70
2018-06-20T13:09:22.624Z,24.20
2018-06-20T13:11:50.830Z,20.40
2018-06-20T13:14:19.020Z,19.37
2018-06-20T13:16:47.214Z,17.83
2018-06-20T13:19:15.421Z,17.23
2018-06-20T13:21:43.680Z,17.03
2018-06-20T13:24:11.868Z,20.43
2018-06-20T13:26:40.075Z,15.50
2018-06-20T13:29:08.001Z,15.23
2018-06-20T13:31:41.555Z,12.50
2018-06-20T13:34:15.275Z,13.67
2018-06-20T13:36:49.016Z,11.97
2018-06-20T13:39:22.657Z,9.13
2018-06-20T13:41:56.256Z,9.50
2018-06-20T13:44:26.184Z,7.97
2018-06-20T13:46:59.865Z,9.70
2018-06-20T13:49:28.073Z,7.80
2018-06-20T13:51:56.296Z,5.30
2018-06-20T13:54:24.533Z,3.87
2018-06-20T13:56:53.372Z,6.07
2018-06-20T13:59:21.361Z,3.73
2018-06-20T14:01:49.487Z,5.60
2018-06-20T14:04:17.714Z,5.30
2018-06-20T14:06:45.929Z,4.33
2018-06-20T14:09:14.113Z,4.77
2018-06-20T14:11:42.721Z,4.93
2018-06-20T14:14:10.777Z,4.90
2018-06-20T14:16:38.965Z,3.90
2018-06-20T14:19:06.889Z,4.37
2018-06-20T14:21:40.380Z,4.00
2018-06-20T14:24:09.728Z,4.33
2018-06-20T14:26:38.763Z,3.47
2018-06-20T14:29:07.541Z,3.37
2018-06-20T14:31:41.334Z,4.13
2018-06-20T14:34:14.975Z,4.13
2018-06-20T14:36:48.696Z,6.73
2018-06-20T14:39:22.455Z,4.90
2018-06-20T14:41:56.028Z,3.50
2018-06-20T14:44:23.978Z,4.40
2018-06-20T14:46:52.135Z,4.40
2018-06-20T14:49:20.331Z,3.90
2018-06-20T14:51:48.505Z,5.63
2018-06-20T14:54:16.721Z,5.60
2018-06-20T14:56:44.910Z,6.03
2018-06-20T14:59:13.131Z,6.23
2018-06-20T15:01:41.360Z,8.07
2018-06-20T15:04:09.564Z,5.60
2018-06-20T15:06:37.748Z,2.80
2018-06-20T15:09:07.997Z,4.73
2018-06-20T15:11:36.484Z,6.93
2018-06-20T15:14:04.676Z,5.47
2018-06-20T15:17:41.920Z,2.20
2018-06-20T15:20:09.928Z,5.30
2018-06-20T15:22:43.412Z,2.70
2018-06-20T15:25:11.617Z,6.53
2018-06-20T15:27:45.093Z,7.03
2018-06-20T15:30:18.564Z,3.30
2018-06-20T15:32:51.926Z,7.10
2018-06-20T15:35:25.515Z,3.73
2018-06-20T15:37:59.262Z,2.77
2018-06-20T15:40:27.196Z,10.40
2018-06-20T15:42:55.372Z,4.17
2018-06-20T15:45:23.584Z,3.00
2018-06-20T15:47:51.530Z,8.50
2018-06-20T15:50:19.705Z,2.70
2018-06-20T15:52:47.896Z,8.00
2018-06-20T15:55:15.859Z,8.20
2018-06-20T15:57:44.188Z,3.23
2018-06-20T16:00:12.382Z,5.37
2018-06-20T16:02:40.572Z,3.07
2018-06-20T16:05:08.831Z,4.60
2018-06-20T16:07:37.024Z,4.50
2018-06-20T16:10:06.449Z,5.63
2018-06-20T16:12:34.391Z,1.80
2018-06-20T16:15:02.588Z,8.80
2018-06-20T16:17:30.548Z,2.27
2018-06-20T16:20:04.117Z,2.17
2018-06-20T16:22:37.742Z,2.80
2018-06-20T16:25:11.440Z,5.97
2018-06-20T16:27:45.121Z,2.67
2018-06-20T16:30:18.817Z,2.40
2018-06-20T16:32:47.016Z,9.00
2018-06-20T16:35:15.192Z,3.67
2018-06-20T16:37:43.422Z,3.93
2018-06-20T16:40:11.596Z,2.90
2018-06-20T16:42:39.819Z,3.07
2018-06-20T16:45:07.996Z,1.70
2018-06-20T16:47:35.928Z,4.73
2018-06-20T16:50:04.124Z,5.40
2018-06-20T16:52:32.308Z,2.67
2018-06-20T16:55:00.484Z,7.50
2018-06-20T16:57:28.447Z,3.27
2018-06-20T16:59:56.637Z,2.17
2018-06-20T17:02:30.164Z,2.33
2018-06-20T17:04:58.339Z,3.47
2018-06-20T17:07:26.536Z,3.30
2018-06-20T17:09:54.718Z,7.50
2018-06-20T17:12:28.290Z,5.17
2018-06-20T17:15:01.956Z,2.87
2018-06-20T17:17:35.522Z,4.33
2018-06-20T17:20:09.167Z,2.90
2018-06-20T17:22:42.611Z,5.10
2018-06-20T17:25:13.281Z,3.50
2018-06-20T17:27:41.459Z,7.03
2018-06-20T17:30:09.416Z,4.00
2018-06-20T17:32:37.580Z,1.57
2018-06-20T17:35:05.837Z,5.60
2018-06-20T17:37:34.039Z,6.47
2018-06-20T17:40:02.237Z,6.73
2018-06-20T17:42:30.469Z,3.50
2018-06-20T17:44:58.648Z,8.80
2018-06-20T17:47:26.841Z,5.70
2018-06-20T17:49:54.796Z,4.93
2018-06-20T17:52:22.976Z,5.30
2018-06-20T17:54:51.160Z,7.20
2018-06-20T17:57:19.346Z,7.77
2018-06-20T17:59:47.509Z,3.20
2018-06-20T18:02:15.465Z,6.60
2018-06-20T18:04:49.168Z,4.03
2018-06-20T18:07:22.833Z,6.00
2018-06-20T18:09:56.524Z,7.40
2018-06-20T18:13:29.710Z,7.30
2018-06-20T18:16:03.233Z,5.87
2018-06-20T18:18:31.464Z,3.10
2018-06-20T18:20:59.644Z,6.77
2018-06-20T18:23:27.820Z,7.70
2018-06-20T18:25:55.993Z,3.20
2018-06-20T18:28:24.188Z,5.13
2018-06-20T18:30:52.388Z,5.23
2018-06-20T18:33:20.600Z,6.73
2018-06-20T18:35:48.544Z,6.93
2018-06-20T18:38:16.818Z,3.53
2018-06-20T18:40:45.033Z,7.20
2018-06-20T18:43:13.196Z,6.50
2018-06-20T18:45:41.403Z,6.70
2018-06-20T18:48:14.940Z,3.60
2018-06-20T18:50:43.120Z,3.50
2018-06-20T18:53:11.378Z,6.03
2018-06-20T18:55:39.585Z,9.57
2018-06-20T18:59:16.903Z,6.03
2018-06-20T19:01:50.665Z,5.00
2018-06-20T19:04:32.108Z,4.73
2018-06-20T19:07:05.552Z,8.20
2018-06-20T19:09:33.749Z,4.60
2018-06-20T19:12:01.925Z,5.33
2018-06-20T19:14:30.121Z,11.83
2018-06-20T19:16:58.412Z,10.93
2018-06-20T19:19:26.609Z,9.17
2018-06-20T19:21:54.784Z,6.00
2018-06-20T19:24:22.972Z,9.93
2018-06-20T19:26:51.156Z,6.43
2018-06-20T19:29:19.075Z,6.00
2018-06-20T19:31:47.521Z,6.77
2018-06-20T19:34:15.704Z,7.90
2018-06-20T19:36:44.451Z,10.87
2018-06-20T19:39:18.214Z,6.70
2018-06-20T19:41:46.413Z,5.80
2018-06-20T19:44:20.113Z,8.90
2018-06-20T19:46:48.312Z,5.87
2018-06-20T19:49:16.555Z,8.10
2018-06-20T19:51:45.172Z,10.07
2018-06-20T19:54:13.299Z,5.33
2018-06-20T19:56:41.476Z,5.50
2018-06-20T19:59:09.657Z,7.53
2018-06-20T20:01:37.956Z,6.20
2018-06-20T20:04:06.152Z,2.80
2018-06-20T20:06:34.095Z,8.13
2018-06-20T20:09:02.296Z,3.63
2018-06-20T20:11:30.254Z,7.97
2018-06-20T20:13:58.448Z,4.80
2018-06-20T20:16:26.639Z,5.13
2018-06-20T20:18:54.844Z,12.17
2018-06-20T20:21:23.013Z,7.30
2018-06-20T20:23:51.287Z,14.53
2018-06-20T20:26:19.548Z,3.13
2018-06-20T20:28:47.757Z,8.37
2018-06-20T20:31:15.976Z,9.30
2018-06-20T20:33:44.173Z,9.67
2018-06-20T20:36:12.360Z,5.07
2018-06-20T20:38:40.533Z,6.30
2018-06-20T20:41:08.718Z,3.53
2018-06-20T20:43:36.891Z,17.33
2018-06-20T20:46:05.378Z,6.30
2018-06-20T20:48:33.577Z,6.13
2018-06-20T20:51:01.767Z,4.93
2018-06-20T20:53:29.977Z,5.00
2018-06-20T20:55:58.145Z,14.63
2018-06-20T20:58:26.328Z,6.97
2018-06-20T21:00:54.500Z,5.43
2018-06-20T21:03:22.683Z,7.10
2018-06-20T21:05:50.876Z,4.17
2018-06-20T21:08:19.056Z,7.63
2018-06-20T21:10:51.143Z,7.80
2018-06-20T21:13:19.322Z,8.53
2018-06-20T21:15:47.501Z,5.23
2018-06-20T21:18:15.721Z,11.43
2018-06-20T21:20:43.924Z,7.20
2018-06-20T21:23:12.144Z,7.00
2018-06-20T21:25:40.318Z,11.80
2018-06-20T21:28:08.485Z,4.67
2018-06-20T21:30:36.660Z,4.20
2018-06-20T21:33:04.912Z,8.67
2018-06-20T21:35:33.112Z,10.20
2018-06-20T21:38:01.464Z,8.10
2018-06-20T21:40:29.641Z,4.20
2018-06-20T21:42:57.811Z,7.57
2018-06-20T21:45:26.015Z,8.07
2018-06-20T21:47:54.219Z,11.63
2018-06-20T21:50:22.376Z,6.60
2018-06-20T21:52:50.544Z,7.80
2018-06-20T21:55:18.753Z,7.13
2018-06-20T21:57:46.922Z,7.20
2018-06-20T22:00:15.112Z,6.90
2018-06-20T22:02:43.320Z,10.30
2018-06-20T22:05:11.494Z,7.27
2018-06-20T22:07:39.679Z,9.83
2018-06-20T22:10:08.084Z,9.50
2018-06-20T22:12:36.268Z,7.60
2018-06-20T22:15:04.467Z,10.77
2018-06-20T22:17:32.636Z,13.30
2018-06-20T22:20:00.813Z,6.40
2018-06-20T22:22:28.767Z,9.17
2018-06-20T22:24:56.944Z,7.27
2018-06-20T22:27:25.152Z,6.70
2018-06-20T22:29:53.328Z,11.13
2018-06-20T22:32:21.503Z,12.50
2018-06-20T22:34:49.687Z,7.67
2018-06-20T22:37:17.960Z,11.83
2018-06-20T22:39:46.201Z,6.60
2018-06-20T22:42:14.453Z,9.43
2018-06-20T22:44:42.711Z,7.03
2018-06-20T22:47:11.038Z,5.83
2018-06-20T22:49:39.271Z,8.47
2018-06-20T22:52:07.523Z,11.53
2018-06-20T22:54:35.782Z,8.50
2018-06-20T22:57:04.037Z,11.20
2018-06-20T22:59:32.287Z,7.80
2018-06-20T23:02:00.533Z,12.90
2018-06-20T23:04:28.787Z,10.57
2018-06-20T23:06:57.038Z,6.47
2018-06-20T23:09:25.321Z,10.80
2018-06-20T23:11:53.570Z,11.13
2018-06-20T23:14:21.580Z,10.30
2018-06-20T23:16:49.835Z,7.43
2018-06-20T23:19:18.107Z,12.40
2018-06-20T23:21:46.374Z,10.17
2018-06-20T23:24:14.614Z,9.60
2018-06-20T23:26:42.878Z,12.30
2018-06-20T23:29:11.270Z,7.03
2018-06-20T23:31:39.515Z,14.77
2018-06-20T23:34:07.758Z,10.00
2018-06-20T23:36:36.006Z,15.80
2018-06-20T23:39:07.297Z,15.37
2018-06-20T23:41:35.794Z,17.67
2018-06-20T23:44:04.083Z,17.70
2018-06-20T23:46:32.334Z,27.27
2018-06-20T23:49:00.591Z,17.80
2018-06-20T23:51:28.645Z,21.23
2018-06-20T23:53:56.913Z,25.77
2018-06-20T23:56:25.157Z,19.77
2018-06-20T23:58:53.411Z,23.13
